Time;durP1;ratioP1;P1;durP2;ratioP2;P2;SDS_P1;SDS_P2;PMS_P1;PMS_P2;Temp;Humidity;BMP_temperature;BMP_pressure;BME280_temperature;BME280_humidity;BME280_pressure;Samples;Min_cycle;Max_cycle;Signal;HPM_P1;HPM_P2
2023/01/12 00:01:25;;;;;;;30.27;3.38;;;7.10;99.90;;;;;;5123445;28;20054;-35
2023/01/12 00:03:52;;;;;;;22.30;4.43;;;7.10;99.90;;;;;;5118082;28;20051;-37
2023/01/12 00:06:18;;;;;;;28.95;4.25;;;7.10;99.90;;;;;;5113862;28;20083;-38
2023/01/12 00:08:45;;;;;;;32.58;4.38;;;7.10;99.90;;;;;;5113833;28;20084;-35
2023/01/12 00:11:12;;;;;;;29.38;4.57;;;7.10;99.90;;;;;;5113872;28;20048;-35
2023/01/12 00:13:37;;;;;;;30.85;4.18;;;7.10;99.90;;;;;;5114336;28;20170;-34
2023/01/12 00:18:49;;;;;;;28.73;4.18;;;7.40;99.90;;;;;;5116060;28;20185;-32
2023/01/12 00:21:15;;;;;;;27.77;5.03;;;7.60;99.90;;;;;;5118784;27;20054;-33
2023/01/12 00:23:43;;;;;;;25.70;4.47;;;7.70;99.90;;;;;;5138273;27;20044;-32
2023/01/12 00:26:10;;;;;;;22.42;3.75;;;7.70;99.90;;;;;;5136545;27;20473;-33
2023/01/12 00:28:37;;;;;;;22.35;3.35;;;7.60;99.90;;;;;;5138476;27;20051;-33
2023/01/12 00:31:08;;;;;;;34.38;5.88;;;7.60;99.90;;;;;;5138104;27;20039;-33
2023/01/12 00:33:36;;;;;;;21.17;4.10;;;7.60;99.90;;;;;;5120575;27;20054;-34
2023/01/12 00:36:07;;;;;;;23.88;4.53;;;7.50;99.90;;;;;;5136423;27;20481;-34
2023/01/12 00:38:35;;;;;;;22.05;4.15;;;7.40;90.00;;;;;;5137239;27;20481;-33
2023/01/12 00:41:08;;;;;;;14.77;3.60;;;7.30;1.00;;;;;;5119647;27;20104;-34
2023/01/12 00:46:27;;;;;;;28.80;4.82;;;7.20;99.90;;;;;;5136317;27;20137;-39
2023/01/12 00:48:53;;;;;;;32.55;5.03;;;7.20;99.90;;;;;;5137931;27;20039;-39
2023/01/12 00:51:18;;;;;;;35.97;5.32;;;7.20;99.90;;;;;;5137724;27;20069;-37
2023/01/12 00:53:44;;;;;;;37.70;7.25;;;7.30;99.90;;;;;;5138259;27;20099;-35
2023/01/12 00:56:10;;;;;;;27.02;4.05;;;7.40;99.90;;;;;;5119370;27;20392;-35
2023/01/12 00:58:35;;;;;;;21.38;4.10;;;7.30;99.90;;;;;;5135856;27;20043;-36
2023/01/12 01:01:06;;;;;;;25.30;4.35;;;7.40;99.90;;;;;;5119340;27;20078;-36
2023/01/12 01:03:32;;;;;;;28.98;4.10;;;7.40;99.90;;;;;;5137509;27;20072;-36
2023/01/12 01:06:03;;;;;;;23.85;4.38;;;7.40;99.90;;;;;;5137462;27;20055;-38
2023/01/12 01:08:29;;;;;;;21.60;3.75;;;7.40;99.90;;;;;;5135820;27;20035;-38
2023/01/12 01:11:08;;;;;;;22.65;4.70;;;7.50;99.90;;;;;;5119308;27;20047;-38
2023/01/12 01:13:35;;;;;;;28.23;5.72;;;7.60;99.90;;;;;;5120121;27;20047;-34
2023/01/12 01:16:02;;;;;;;31.42;4.45;;;7.60;99.90;;;;;;5137313;27;20089;-36
2023/01/12 01:18:28;;;;;;;26.90;3.97;;;7.60;99.90;;;;;;5136507;27;20046;-34
2023/01/12 01:20:54;;;;;;;25.13;3.83;;;7.60;99.90;;;;;;5137484;27;20068;-36
2023/01/12 01:23:21;;;;;;;23.70;3.78;;;7.60;99.90;;;;;;5137371;27;20608;-36
2023/01/12 01:25:47;;;;;;;23.90;3.15;;;7.60;99.90;;;;;;5136998;27;20172;-34
2023/01/12 01:28:13;;;;;;;28.88;5.72;;;7.60;99.90;;;;;;5136471;27;20066;-34
2023/01/12 01:30:39;;;;;;;19.67;3.58;;;7.50;99.90;;;;;;5137269;27;20053;-35
2023/01/12 01:33:04;;;;;;;27.63;4.78;;;7.50;99.90;;;;;;5136549;27;20563;-34
2023/01/12 01:35:30;;;;;;;26.13;5.53;;;7.60;99.90;;;;;;5136877;27;20130;-34
2023/01/12 01:37:56;;;;;;;20.17;3.55;;;7.70;99.90;;;;;;5136851;27;20053;-37
2023/01/12 01:40:22;;;;;;;28.40;4.20;;;7.60;99.90;;;;;;5116930;27;20134;-35
2023/01/12 01:42:48;;;;;;;28.08;4.40;;;7.60;99.90;;;;;;5136777;27;20122;-35
2023/01/12 01:45:15;;;;;;;28.67;4.63;;;7.60;99.90;;;;;;5136718;27;20464;-34
2023/01/12 01:48:01;;;;;;;19.00;3.63;;;7.60;99.90;;;;;;5118402;27;20101;-34
2023/01/12 01:50:33;;;;;;;28.40;3.72;;;7.50;99.90;;;;;;5135114;27;20126;-34
2023/01/12 01:53:13;;;;;;;27.52;4.30;;;7.50;99.90;;;;;;5136587;27;20485;-35
2023/01/12 01:55:49;;;;;;;30.08;5.65;;;7.50;99.90;;;;;;5118706;27;20082;-34
2023/01/12 01:58:23;;;;;;;30.33;4.53;;;7.40;99.90;;;;;;5136987;27;20039;-34
2023/01/12 02:00:48;;;;;;;34.83;4.70;;;7.40;99.90;;;;;;5134795;27;20047;-35
2023/01/12 02:03:16;;;;;;;37.28;6.38;;;7.40;99.90;;;;;;5100990;27;20139;-37
2023/01/12 02:05:45;;;;;;;29.33;4.18;;;7.60;99.90;;;;;;5136559;27;20404;-37
2023/01/12 02:08:32;;;;;;;29.58;5.20;;;7.60;99.90;;;;;;5136774;27;20088;-39
2023/01/12 02:11:00;;;;;;;24.92;4.03;;;7.70;99.90;;;;;;5101311;27;20039;-38
2023/01/12 02:16:24;;;;;;;24.23;4.03;;;7.70;99.90;;;;;;5136703;27;20100;-38
2023/01/12 02:19:17;;;;;;;29.13;4.88;;;7.70;99.90;;;;;;5136030;27;20476;-37
2023/01/12 02:22:19;;;;;;;24.25;3.42;;;7.80;99.90;;;;;;5134430;27;20047;-37
2023/01/12 02:25:03;;;;;;;22.70;4.35;;;7.80;99.90;;;;;;5117614;27;20058;-38
2023/01/12 02:27:52;;;;;;;27.15;4.43;;;7.80;99.90;;;;;;5136472;27;20043;-38
2023/01/12 02:30:54;;;;;;;28.13;4.80;;;7.80;99.90;;;;;;5117242;27;20504;-34
2023/01/12 02:33:30;;;;;;;32.75;5.35;;;7.90;99.90;;;;;;5123667;27;20055;-34
2023/01/12 02:36:30;;;;;;;44.05;6.32;;;7.90;99.90;;;;;;5135722;27;20058;-34
2023/01/12 02:39:13;;;;;;;29.85;4.88;;;7.90;99.90;;;;;;5117295;27;20061;-34
2023/01/12 02:45:16;;;;;;;30.52;5.63;;;7.90;99.90;;;;;;5135130;27;20051;-38
2023/01/12 02:48:18;;;;;;;26.33;4.97;;;7.90;99.90;;;;;;5135450;27;20133;-37
2023/01/12 02:51:15;;;;;;;41.20;5.55;;;7.90;99.90;;;;;;5135157;27;20049;-37
2023/01/12 02:53:58;;;;;;;24.92;4.13;;;7.90;99.90;;;;;;5135634;27;20062;-35
2023/01/12 02:56:39;;;;;;;39.13;5.82;;;7.90;99.90;;;;;;5135732;27;20046;-38
2023/01/12 02:59:16;;;;;;;31.08;3.92;;;7.80;99.90;;;;;;5116553;27;20130;-37
2023/01/12 03:01:47;;;;;;;33.72;5.65;;;7.80;99.90;;;;;;5134244;27;20054;-37
2023/01/12 03:04:15;;;;;;;39.95;6.22;;;7.80;99.90;;;;;;5117054;27;20134;-38
2023/01/12 03:07:07;;;;;;;35.17;7.22;;;7.90;99.90;;;;;;5135148;27;20058;-37
2023/01/12 03:09:50;;;;;;;32.50;4.85;;;7.90;99.90;;;;;;5124772;27;20043;-34
2023/01/12 03:12:22;;;;;;;30.70;6.05;;;7.90;99.90;;;;;;5134999;27;20047;-37
2023/01/12 03:14:49;;;;;;;43.28;6.47;;;8.00;99.90;;;;;;5115647;27;20077;-35
2023/01/12 03:17:32;;;;;;;38.95;6.10;;;8.00;99.90;;;;;;5134959;27;20058;-34
2023/01/12 03:20:14;;;;;;;38.33;5.60;;;8.00;99.90;;;;;;5102079;27;20097;-35
2023/01/12 03:22:41;;;;;;;46.05;6.32;;;8.10;99.90;;;;;;5135512;27;20058;-35
2023/01/12 03:25:12;;;;;;;39.47;5.43;;;8.10;99.90;;;;;;5114654;27;20055;-35
2023/01/12 03:27:41;;;;;;;38.90;6.20;;;8.10;99.90;;;;;;5135175;27;20054;-39
2023/01/12 03:30:19;;;;;;;30.90;5.35;;;8.10;99.90;;;;;;5116993;27;20184;-34
2023/01/12 03:32:44;;;;;;;27.35;5.38;;;8.10;99.90;;;;;;5135351;27;20138;-38
2023/01/12 03:35:11;;;;;;;28.67;4.72;;;8.10;99.90;;;;;;5114368;28;20161;-40
2023/01/12 03:37:45;;;;;;;33.65;7.95;;;8.10;99.90;;;;;;5134083;27;20046;-38
2023/01/12 03:40:22;;;;;;;25.65;5.53;;;8.10;99.90;;;;;;5116135;28;20063;-38
2023/01/12 03:42:55;;;;;;;31.85;5.15;;;8.20;99.90;;;;;;5116402;28;20036;-36
2023/01/12 03:45:44;;;;;;;31.73;5.30;;;8.20;99.90;;;;;;5133186;27;20073;-40
2023/01/12 03:48:17;;;;;;;24.33;4.32;;;8.20;99.90;;;;;;5098098;28;20040;-38
2023/01/12 03:50:58;;;;;;;28.88;4.88;;;8.20;99.90;;;;;;5114128;28;20047;-38
2023/01/12 03:53:25;;;;;;;31.45;4.38;;;8.20;99.90;;;;;;5114063;28;20040;-33
2023/01/12 03:55:58;;;;;;;28.90;5.18;;;8.40;99.90;;;;;;5126941;27;20408;-38
2023/01/12 03:58:24;;;;;;;;;;;8.40;99.90;;;;;;5139793;27;20385;-33
2023/01/12 04:00:50;;;;;;;30.13;4.68;;;8.40;99.90;;;;;;5138776;27;19919;-36
2023/01/12 04:03:16;;;;;;;28.30;5.43;;;8.40;99.90;;;;;;5138984;27;20180;-35
2023/01/12 04:05:43;;;;;;;31.20;6.85;;;8.40;99.90;;;;;;5102957;27;20062;-38
2023/01/12 04:08:10;;;;;;;33.97;5.18;;;8.40;99.90;;;;;;5120567;27;20051;-38
2023/01/12 04:10:36;;;;;;;31.95;5.72;;;8.40;99.90;;;;;;5138535;27;20051;-34
2023/01/12 04:13:02;;;;;;;30.63;4.90;;;8.40;99.90;;;;;;5104220;27;20055;-34
2023/01/12 04:15:28;;;;;;;34.10;6.22;;;8.50;99.90;;;;;;5138989;27;20043;-36
2023/01/12 04:17:53;;;;;;;36.03;5.22;;;8.40;99.90;;;;;;5135998;27;20489;-37
2023/01/12 04:20:19;;;;;;;24.02;4.55;;;8.40;99.90;;;;;;5138340;27;20122;-34
2023/01/12 04:22:45;;;;;;;30.33;5.45;;;8.40;99.90;;;;;;5120415;27;20123;-35
2023/01/12 04:25:21;;;;;;;20.55;4.05;;;8.40;99.90;;;;;;5086118;27;20073;-35
2023/01/12 04:27:49;;;;;;;24.75;4.57;;;8.30;99.90;;;;;;5136666;27;20035;-35
2023/01/12 04:30:17;;;;;;;17.75;3.63;;;8.30;99.90;;;;;;5137929;27;20141;-34
2023/01/12 04:32:44;;;;;;;29.90;5.57;;;8.30;99.90;;;;;;5137075;27;20114;-36
2023/01/12 04:35:15;;;;;;;18.95;4.20;;;8.30;99.90;;;;;;5138120;27;20038;-34
2023/01/12 04:37:41;;;;;;;13.95;1.85;;;8.30;99.90;;;;;;5119681;27;20051;-33
2023/01/12 04:40:08;;;;;;;11.48;2.20;;;8.30;99.90;;;;;;5139001;27;20051;-35
2023/01/12 04:45:18;;;;;;;17.05;2.33;;;8.10;99.90;;;;;;5137900;27;20047;-38
2023/01/12 04:47:44;;;;;;;11.30;2.03;;;8.00;99.90;;;;;;5120562;27;20058;-35
2023/01/12 04:50:10;;;;;;;16.02;2.80;;;8.20;99.90;;;;;;5138045;27;20492;-34
2023/01/12 04:52:36;;;;;;;16.92;2.40;;;8.00;99.90;;;;;;5137279;27;20046;-38
2023/01/12 04:55:04;;;;;;;10.43;1.70;;;8.00;99.90;;;;;;5118858;27;20050;-34
2023/01/12 04:57:30;;;;;;;17.90;3.17;;;8.10;99.90;;;;;;5137705;27;20098;-38
2023/01/12 04:59:56;;;;;;;13.73;2.88;;;8.00;99.90;;;;;;5138411;27;20043;-35
2023/01/12 05:02:22;;;;;;;16.40;2.70;;;8.00;99.90;;;;;;5102568;27;20126;-34
2023/01/12 05:04:48;;;;;;;16.73;3.08;;;8.00;99.90;;;;;;5135928;27;20126;-37
2023/01/12 05:07:14;;;;;;;13.00;2.72;;;7.90;99.90;;;;;;5119422;27;20095;-34
2023/01/12 05:12:25;;;;;;;10.23;2.13;;;8.00;99.90;;;;;;5121982;27;20047;-38
2023/01/12 05:14:50;;;;;;;9.40;2.40;;;8.00;99.90;;;;;;5135775;27;20032;-39
2023/01/12 05:17:16;;;;;;;10.60;2.35;;;8.00;99.90;;;;;;5102171;27;20043;-36
2023/01/12 05:19:42;;;;;;;14.35;2.35;;;8.00;99.90;;;;;;5137133;27;20049;-35
2023/01/12 05:22:08;;;;;;;10.25;2.20;;;8.00;99.90;;;;;;5137187;27;20129;-35
2023/01/12 05:24:33;;;;;;;15.55;3.20;;;8.10;99.90;;;;;;5135897;27;20047;-34
2023/01/12 05:27:00;;;;;;;9.15;2.40;;;8.00;99.90;;;;;;5137665;27;20501;-39
2023/01/12 05:29:26;;;;;;;8.65;1.92;;;8.00;99.90;;;;;;5137875;27;20043;-39
2023/01/12 05:31:52;;;;;;;8.55;1.67;;;8.10;99.90;;;;;;5118702;27;20126;-36
2023/01/12 05:34:18;;;;;;;7.80;1.92;;;8.00;99.90;;;;;;5136346;27;20085;-37
2023/01/12 05:36:44;;;;;;;8.90;2.15;;;8.00;99.90;;;;;;5117460;27;20099;-34
2023/01/12 05:39:10;;;;;;;8.25;2.03;;;8.00;99.90;;;;;;5136950;27;20063;-38
2023/01/12 05:41:36;;;;;;;10.32;2.03;;;8.00;99.90;;;;;;5136802;27;20130;-39
2023/01/12 05:44:01;;;;;;;6.40;2.03;;;7.90;99.90;;;;;;5117949;27;20054;-34
2023/01/12 05:46:32;;;;;;;6.22;2.47;;;7.90;99.90;;;;;;5136786;27;20597;-37
2023/01/12 05:48:58;;;;;;;6.43;1.83;;;8.00;99.90;;;;;;5136612;27;20054;-34
2023/01/12 05:51:26;;;;;;;4.05;1.77;;;8.00;99.90;;;;;;5101268;27;20049;-36
2023/01/12 05:53:53;;;;;;;5.05;2.13;;;8.00;99.90;;;;;;5116714;27;20055;-38
2023/01/12 05:56:24;;;;;;;5.70;2.25;;;8.00;99.90;;;;;;5137381;27;20381;-36
2023/01/12 05:58:58;;;;;;;7.40;2.03;;;8.10;99.90;;;;;;5136366;27;20131;-41
2023/01/12 06:01:25;;;;;;;6.18;2.85;;;8.00;99.90;;;;;;5118196;27;20051;-39
2023/01/12 06:03:53;;;;;;;4.63;1.92;;;8.00;99.90;;;;;;5135028;27;20131;-35
2023/01/12 06:06:20;;;;;;;3.15;1.60;;;8.00;99.90;;;;;;5136317;27;20072;-37
2023/01/12 06:08:47;;;;;;;4.10;1.60;;;8.00;99.90;;;;;;5136818;27;20088;-41
2023/01/12 06:13:59;;;;;;;4.25;1.13;;;8.10;99.90;;;;;;5134558;27;20047;-40
2023/01/12 06:16:26;;;;;;;3.78;1.27;;;8.20;99.90;;;;;;5101046;27;20222;-41
2023/01/12 06:18:51;;;;;;;6.28;1.83;;;8.10;99.90;;;;;;5134880;27;20043;-41
2023/01/12 06:21:17;;;;;;;4.55;1.33;;;8.10;99.90;;;;;;5118447;27;20054;-40
2023/01/12 06:23:43;;;;;;;2.83;1.30;;;8.20;99.90;;;;;;5118523;27;20046;-41
2023/01/12 06:26:09;;;;;;;4.93;1.50;;;8.20;99.90;;;;;;5095950;28;20401;-42
2023/01/12 06:28:39;;;;;;;2.88;1.20;;;8.20;99.90;;;;;;5134566;27;20438;-40
2023/01/12 06:31:07;;;;;;;2.40;1.13;;;8.30;99.90;;;;;;5117621;27;20126;-41
2023/01/12 06:33:33;;;;;;;3.00;1.30;;;8.40;99.90;;;;;;5136615;27;20047;-41
2023/01/12 06:35:59;;;;;;;2.90;0.93;;;8.40;99.90;;;;;;5116446;27;20485;-40
2023/01/12 06:38:27;;;;;;;3.63;1.42;;;8.50;99.90;;;;;;5135399;27;20043;-38
2023/01/12 06:40:56;;;;;;;3.92;1.05;;;8.50;99.90;;;;;;5135450;27;20401;-39
2023/01/12 06:43:22;;;;;;;2.58;0.90;;;8.50;99.90;;;;;;5118115;27;20054;-39
2023/01/12 06:45:51;;;;;;;5.40;1.27;;;8.60;99.90;;;;;;5134867;27;20507;-41
2023/01/12 06:48:21;;;;;;;5.20;1.08;;;8.70;99.90;;;;;;5135141;27;20511;-41
2023/01/12 06:50:47;;;;;;;3.15;0.95;;;8.70;99.90;;;;;;5117950;27;20405;-40
2023/01/12 06:53:12;;;;;;;2.03;1.13;;;8.70;99.90;;;;;;5135429;27;20481;-41
2023/01/12 06:55:38;;;;;;;6.80;1.98;;;8.80;99.90;;;;;;5116724;27;20053;-45
2023/01/12 06:58:04;;;;;;;5.25;1.98;;;8.80;99.90;;;;;;5116285;27;20043;-41
2023/01/12 07:00:30;;;;;;;9.02;3.20;;;8.90;99.90;;;;;;5135334;27;20047;-41
2023/01/12 07:02:57;;;;;;;13.32;4.07;;;9.00;99.90;;;;;;5116820;27;20039;-44
2023/01/12 07:05:23;;;;;;;18.10;4.53;;;9.10;99.90;;;;;;5113096;27;20043;-40
2023/01/12 07:07:55;;;;;;;19.77;4.78;;;9.20;99.90;;;;;;5107309;27;20362;-38
2023/01/12 07:10:21;;;;;;;26.07;5.57;;;9.20;99.90;;;;;;5124780;27;20058;-35
2023/01/12 07:12:46;;;;;;;24.45;6.22;;;9.40;99.90;;;;;;5109379;27;20121;-35
2023/01/12 07:15:13;;;;;;;27.73;6.65;;;9.40;99.90;;;;;;5134698;27;20035;-41
2023/01/12 07:17:39;;;;;;;24.23;5.38;;;9.50;99.90;;;;;;5100238;27;20050;-42
2023/01/12 07:20:05;;;;;;;22.17;4.40;;;9.50;99.90;;;;;;5134777;27;20042;-41
2023/01/12 07:22:33;;;;;;;29.05;5.68;;;9.50;99.90;;;;;;5124773;27;20044;-42
2023/01/12 07:24:59;;;;;;;28.23;5.57;;;9.70;99.90;;;;;;5106843;27;20066;-41
2023/01/12 07:27:24;;;;;;;34.63;6.15;;;9.80;99.90;;;;;;5116629;27;20054;-41
2023/01/12 07:29:50;;;;;;;29.92;5.63;;;9.70;99.90;;;;;;5134820;27;20126;-38
2023/01/12 07:32:16;;;;;;;26.80;5.13;;;9.70;99.90;;;;;;5116296;27;20409;-38
2023/01/12 07:34:44;;;;;;;25.17;5.72;;;9.80;99.90;;;;;;5099499;28;20400;-35
2023/01/12 07:37:10;;;;;;;32.42;6.22;;;9.90;99.90;;;;;;5134929;27;20039;-35
2023/01/12 07:39:35;;;;;;;31.95;7.05;;;10.00;99.90;;;;;;5134266;27;20063;-38
2023/01/12 07:44:46;;;;;;;26.98;6.32;;;10.00;99.90;;;;;;5112554;28;20412;-38
2023/01/12 07:47:12;;;;;;;26.05;5.22;;;10.10;99.90;;;;;;5133696;28;20050;-35
2023/01/12 07:49:38;;;;;;;27.98;5.38;;;10.10;99.90;;;;;;5134621;28;20039;-36
2023/01/12 07:52:04;;;;;;;21.80;4.65;;;10.00;99.90;;;;;;5134979;28;20548;-34
2023/01/12 07:54:30;;;;;;;26.40;6.15;;;10.00;99.90;;;;;;5129790;27;20043;-34
2023/01/12 07:56:58;;;;;;;29.80;6.35;;;10.00;99.90;;;;;;5099217;28;20051;-38
2023/01/12 07:59:23;;;;;;;38.25;6.90;;;10.10;99.90;;;;;;5114702;28;20053;-39
2023/01/12 08:01:49;;;;;;;25.65;4.25;;;10.00;99.90;;;;;;5133874;28;20126;-34
2023/01/12 08:04:15;;;;;;;33.95;5.82;;;10.10;99.90;;;;;;5134415;28;20051;-37
2023/01/12 08:06:40;;;;;;;28.38;5.35;;;10.10;99.90;;;;;;5134963;28;20047;-37
2023/01/12 08:09:06;;;;;;;23.42;5.68;;;10.10;99.90;;;;;;5134463;28;20035;-38
2023/01/12 08:11:32;;;;;;;31.77;6.10;;;10.30;99.90;;;;;;5117172;28;20453;-38
2023/01/12 08:13:57;;;;;;;34.55;5.25;;;9.80;99.90;;;;;;5134406;28;20047;-37
2023/01/12 08:16:31;;;;;;;26.90;4.97;;;9.80;99.90;;;;;;5134340;28;20119;-38
2023/01/12 08:19:07;;;;;;;25.40;3.88;;;10.40;99.90;;;;;;5134858;28;20043;-39
2023/01/12 08:21:40;;;;;;;30.50;5.75;;;10.00;99.90;;;;;;5134652;28;20054;-39
2023/01/12 08:24:08;;;;;;;;;;;10.10;99.90;;;;;;5135637;28;20050;-39
2023/01/12 08:26:39;;;;;;;25.00;5.57;;;10.40;99.90;;;;;;5116709;28;20047;-40
2023/01/12 08:29:11;;;;;;;29.30;5.68;;;10.10;99.90;;;;;;5134523;28;20408;-36
2023/01/12 08:31:37;;;;;;;25.15;6.07;;;10.40;99.90;;;;;;5134199;28;20072;-35
2023/01/12 08:34:05;;;;;;;29.63;5.00;;;10.40;99.90;;;;;;5116163;28;20055;-36
2023/01/12 08:36:32;;;;;;;20.40;4.13;;;10.40;99.90;;;;;;5134173;28;20489;-35
2023/01/12 08:39:00;;;;;;;34.67;4.35;;;10.10;99.90;;;;;;5116274;28;20407;-34
2023/01/12 08:41:32;;;;;;;25.88;4.70;;;10.00;99.90;;;;;;5135136;27;20397;-35
2023/01/12 08:44:05;;;;;;;32.55;5.38;;;10.50;99.90;;;;;;5138013;27;20054;-33
2023/01/12 08:46:33;;;;;;;;;;;10.30;99.90;;;;;;5120339;27;20058;-35
2023/01/12 08:48:59;;;;;;;26.10;4.60;;;10.20;99.90;;;;;;5137915;27;19919;-35
2023/01/12 08:51:25;;;;;;;26.05;3.88;;;10.00;99.90;;;;;;5138440;27;20568;-36
2023/01/12 08:53:50;;;;;;;25.45;4.40;;;10.00;99.90;;;;;;5137795;27;20039;-34
2023/01/12 08:56:16;;;;;;;23.48;3.30;;;10.30;99.90;;;;;;5102861;27;20393;-34
2023/01/12 08:58:42;;;;;;;28.50;5.10;;;10.20;99.90;;;;;;5119356;27;20122;-34
2023/01/12 09:01:10;;;;;;;23.95;4.95;;;10.40;99.90;;;;;;5102935;27;20135;-34
2023/01/12 09:03:37;;;;;;;23.50;4.00;;;10.10;99.90;;;;;;5119457;27;20054;-41
2023/01/12 09:06:35;;;;;;;27.20;3.70;;;9.90;99.90;;;;;;5137844;27;20039;-41
2023/01/12 09:09:05;;;;;;;28.42;3.85;;;10.50;99.90;;;;;;5117950;27;20061;-40
2023/01/12 09:11:31;;;;;;;23.40;3.70;;;9.90;99.90;;;;;;5120152;27;20039;-39
2023/01/12 09:13:58;;;;;;;26.02;4.40;;;10.40;99.90;;;;;;5137380;27;20126;-39
2023/01/12 09:16:25;;;;;;;26.05;3.10;;;10.10;99.90;;;;;;5137043;27;20043;-40
2023/01/12 09:18:51;;;;;;;18.42;4.70;;;10.50;99.90;;;;;;5137450;27;20477;-39
2023/01/12 09:21:20;;;;;;;24.98;5.20;;;10.20;99.90;;;;;;5137318;27;20043;-39
2023/01/12 09:23:48;;;;;;;25.88;3.65;;;10.60;99.90;;;;;;5137120;27;20047;-40
2023/01/12 09:26:34;;;;;;;23.27;4.65;;;10.40;99.90;;;;;;5137570;27;20399;-39
2023/01/12 09:29:01;;;;;;;28.25;5.57;;;10.00;99.90;;;;;;5133612;27;20047;-36
2023/01/12 09:31:28;;;;;;;20.27;3.75;;;10.60;99.90;;;;;;5118660;27;20042;-35
2023/01/12 09:33:55;;;;;;;27.85;4.28;;;10.40;99.90;;;;;;5136977;27;20125;-35
2023/01/12 09:36:29;;;;;;;26.73;5.30;;;10.00;99.90;;;;;;5136946;27;20051;-38
2023/01/12 09:38:55;;;;;;;23.45;4.05;;;10.00;99.90;;;;;;5137447;27;20061;-40
2023/01/12 09:47:37;;;;;;;22.67;4.10;;;10.00;99.90;;;;;;5137322;27;20054;-40
2023/01/12 09:50:12;;;;;;;24.45;5.20;;;10.30;99.90;;;;;;5137059;27;20469;-35
2023/01/12 09:52:58;;;;;;;28.17;4.90;;;10.30;99.90;;;;;;5119154;27;20043;-38
2023/01/12 09:55:28;;;;;;;19.63;4.75;;;10.10;99.90;;;;;;5119363;27;20051;-37
2023/01/12 09:58:15;;;;;;;23.13;3.88;;;10.40;99.90;;;;;;5136540;27;20039;-35
2023/01/12 10:00:41;;;;;;;22.63;3.58;;;10.30;99.90;;;;;;5136783;27;20401;-35
2023/01/12 10:03:18;;;;;;;21.40;4.32;;;10.50;99.90;;;;;;5118135;27;20043;-34
2023/01/12 10:05:52;;;;;;;22.83;4.65;;;10.50;99.90;;;;;;5137036;27;20462;-41
2023/01/12 10:08:24;;;;;;;26.52;5.32;;;10.50;99.90;;;;;;5136445;27;20051;-39
2023/01/12 10:11:16;;;;;;;24.80;3.83;;;10.50;99.90;;;;;;5118158;27;20524;-41
2023/01/12 10:14:18;;;;;;;28.27;4.53;;;10.70;99.90;;;;;;5136849;27;20370;-39
2023/01/12 10:16:51;;;;;;;18.67;3.55;;;9.90;99.90;;;;;;5118031;27;20047;-35
2023/01/12 10:19:41;;;;;;;23.00;3.63;;;10.50;99.90;;;;;;5136073;27;20050;-40
2023/01/12 10:22:38;;;;;;;19.95;3.83;;;10.00;99.90;;;;;;5117937;27;20043;-35
2023/01/12 10:25:23;;;;;;;25.50;5.10;;;10.10;99.90;;;;;;5135957;27;20104;-36
2023/01/12 10:27:51;;;;;;;18.35;3.45;;;10.30;99.90;;;;;;5135988;27;20119;-39
2023/01/12 10:30:31;;;;;;;15.95;2.90;;;10.30;99.90;;;;;;5135927;27;20035;-41
2023/01/12 10:33:27;;;;;;;12.65;2.90;;;10.10;99.90;;;;;;5136739;27;20039;-40
2023/01/12 10:36:09;;;;;;;18.02;3.28;;;10.30;99.90;;;;;;5116518;27;20138;-37
2023/01/12 10:38:53;;;;;;;22.38;4.20;;;10.10;99.90;;;;;;5135707;27;20043;-38
2023/01/12 10:41:25;;;;;;;21.45;4.35;;;10.40;99.90;;;;;;5131718;27;20100;-36
2023/01/12 10:43:56;;;;;;;23.30;4.47;;;10.30;99.90;;;;;;5127842;27;20082;-39
2023/01/12 10:46:23;;;;;;;17.63;4.18;;;10.30;99.90;;;;;;5132141;27;20054;-33
2023/01/12 10:48:50;;;;;;;16.05;3.25;;;10.50;99.90;;;;;;5117380;27;20046;-33
2023/01/12 10:51:29;;;;;;;23.90;3.88;;;10.60;99.90;;;;;;5136237;27;20047;-34
2023/01/12 10:54:08;;;;;;;20.98;3.92;;;10.60;99.90;;;;;;5117189;27;20047;-34
2023/01/12 10:56:41;;;;;;;22.15;4.22;;;10.50;99.90;;;;;;5135456;27;20078;-34
2023/01/12 10:59:18;;;;;;;32.05;4.97;;;10.10;99.90;;;;;;5135586;27;20047;-41
2023/01/12 11:02:07;;;;;;;18.05;3.58;;;10.20;99.90;;;;;;5117708;27;20047;-41
2023/01/12 11:04:42;;;;;;;23.48;4.40;;;10.30;99.90;;;;;;5134717;27;20047;-38
2023/01/12 11:07:17;;;;;;;22.40;4.45;;;10.60;99.90;;;;;;5117216;27;20049;-41
2023/01/12 11:09:43;;;;;;;21.10;3.60;;;10.60;99.90;;;;;;5116834;27;20129;-41
2023/01/12 11:12:20;;;;;;;17.52;4.13;;;10.30;99.90;;;;;;5135027;27;20049;-39
2023/01/12 11:15:08;;;;;;;28.75;5.22;;;10.20;99.90;;;;;;5135056;27;20051;-37
2023/01/12 11:18:12;;;;;;;18.48;3.55;;;10.40;99.90;;;;;;5134096;27;20043;-40
2023/01/12 11:20:46;;;;;;;18.08;3.50;;;10.40;99.90;;;;;;5131758;27;20112;-40
2023/01/12 11:23:24;;;;;;;24.77;4.20;;;10.20;99.90;;;;;;5135849;27;20388;-37
2023/01/12 11:25:52;;;;;;;24.35;5.22;;;10.40;99.90;;;;;;5134889;27;20082;-40
2023/01/12 11:28:28;;;;;;;17.60;3.90;;;10.50;99.90;;;;;;5134491;27;20050;-37
2023/01/12 11:31:18;;;;;;;20.13;3.95;;;10.70;99.90;;;;;;5133705;27;20530;-37
2023/01/12 11:33:54;;;;;;;24.85;5.22;;;10.40;99.90;;;;;;5116158;27;20043;-41
2023/01/12 11:36:30;;;;;;;25.98;4.50;;;10.70;99.90;;;;;;5099752;27;20091;-38
2023/01/12 11:39:04;;;;;;;20.65;4.15;;;10.50;99.90;;;;;;5116251;28;21292;-38
2023/01/12 11:43:48;;;;;;;16.88;2.58;;;10.80;99.90;;;;;;5134658;27;20051;-38
2023/01/12 11:44:43;;;;;;;21.25;3.42;;;10.60;99.90;;;;;;5116513;28;20061;-38
2023/01/12 11:47:14;;;;;;;20.25;4.05;;;10.80;99.90;;;;;;5134753;28;20043;-39
2023/01/12 11:50:17;;;;;;;17.02;3.80;;;10.90;99.90;;;;;;5135189;28;20362;-40
2023/01/12 11:52:43;;;;;;;19.90;4.07;;;10.80;99.90;;;;;;5135422;28;20102;-39
2023/01/12 11:55:14;;;;;;;20.33;5.43;;;10.90;99.90;;;;;;5134567;28;20118;-40
2023/01/12 11:58:11;;;;;;;21.00;3.22;;;10.90;99.90;;;;;;5134555;28;20047;-40
2023/01/12 12:01:01;;;;;;;29.52;5.18;;;10.90;99.90;;;;;;5117317;28;20423;-40
2023/01/12 12:03:44;;;;;;;20.52;3.45;;;10.90;99.90;;;;;;5134530;28;20051;-41
2023/01/12 12:06:20;;;;;;;20.25;3.15;;;11.00;99.90;;;;;;5134870;28;20082;-42
2023/01/12 12:08:46;;;;;;;18.55;2.90;;;11.00;99.90;;;;;;5117227;28;20050;-41
2023/01/12 12:11:50;;;;;;;24.02;3.90;;;11.10;99.90;;;;;;5134404;28;20047;-42
2023/01/12 12:14:38;;;;;;;12.02;2.80;;;11.10;99.90;;;;;;5135098;28;20127;-42
2023/01/12 12:17:12;;;;;;;15.23;2.55;;;11.00;99.90;;;;;;5120129;27;20396;-42
2023/01/12 12:19:44;;;;;;;22.48;3.78;;;10.90;99.90;;;;;;5138948;27;20353;-42
2023/01/12 12:22:28;;;;;;;17.02;3.47;;;10.90;99.90;;;;;;5121131;27;20429;-41
2023/01/12 12:25:26;;;;;;;18.38;3.53;;;11.00;99.90;;;;;;5120139;27;20047;-42
2023/01/12 12:28:02;;;;;;;17.30;3.13;;;10.90;99.90;;;;;;5138312;27;20143;-42
2023/01/12 12:31:03;;;;;;;16.05;2.15;;;11.00;99.90;;;;;;5138765;27;20126;-42
2023/01/12 12:33:55;;;;;;;13.55;3.38;;;11.00;99.90;;;;;;5075905;27;20062;-42
2023/01/12 12:36:20;;;;;;;16.08;3.05;;;11.10;99.90;;;;;;5138160;27;20492;-41
2023/01/12 12:39:21;;;;;;;15.68;3.00;;;11.00;99.90;;;;;;5119653;27;20079;-40
2023/01/12 12:45:45;;;;;;;19.52;4.10;;;10.80;99.90;;;;;;5137945;27;20055;-37
2023/01/12 12:48:40;;;;;;;21.73;4.22;;;10.80;99.90;;;;;;5137798;27;20043;-39
2023/01/12 12:51:10;;;;;;;25.55;4.70;;;10.70;99.90;;;;;;5137775;27;20493;-35
2023/01/12 12:53:37;;;;;;;24.80;4.47;;;10.80;99.90;;;;;;5137661;27;20039;-37
2023/01/12 12:56:13;;;;;;;26.23;4.78;;;10.80;99.90;;;;;;5137714;27;20122;-37
2023/01/12 12:58:47;;;;;;;20.48;3.10;;;10.80;99.90;;;;;;5137563;27;20472;-34
2023/01/12 13:01:22;;;;;;;28.17;4.32;;;10.80;99.90;;;;;;5137899;27;20050;-39
2023/01/12 13:03:52;;;;;;;15.57;3.30;;;10.80;99.90;;;;;;5137584;27;20050;-38
2023/01/12 13:06:24;;;;;;;28.02;5.97;;;10.90;99.90;;;;;;5119953;27;20474;-40
2023/01/12 13:08:58;;;;;;;23.85;4.10;;;10.90;99.90;;;;;;5137439;27;20040;-39
2023/01/12 13:11:59;;;;;;;25.08;3.95;;;10.90;99.90;;;;;;5138013;27;20053;-39
2023/01/12 13:14:37;;;;;;;23.42;3.38;;;10.90;99.90;;;;;;5137297;27;20054;-39
2023/01/12 13:17:17;;;;;;;20.58;3.95;;;10.90;99.90;;;;;;5137258;27;20381;-38
2023/01/12 13:19:47;;;;;;;22.98;3.55;;;10.90;99.90;;;;;;5137822;27;20039;-38
2023/01/12 13:22:31;;;;;;;24.85;3.47;;;11.00;99.90;;;;;;5120032;27;20055;-40
2023/01/12 13:25:00;;;;;;;17.70;3.70;;;11.00;99.90;;;;;;5137679;27;20130;-40
2023/01/12 13:27:50;;;;;;;19.67;3.47;;;11.00;99.90;;;;;;5136445;27;20050;-39
2023/01/12 13:30:21;;;;;;;22.17;3.25;;;11.10;99.90;;;;;;5118545;27;20057;-39
2023/01/12 13:32:52;;;;;;;25.55;3.90;;;11.10;99.90;;;;;;5136761;27;20043;-39
2023/01/12 13:35:29;;;;;;;18.08;3.35;;;11.10;99.90;;;;;;5137300;27;20044;-39
2023/01/12 13:38:14;;;;;;;24.05;3.15;;;11.10;99.90;;;;;;5136965;27;20505;-40
2023/01/12 13:40:40;;;;;;;24.70;4.45;;;11.10;99.90;;;;;;5136760;27;20362;-41
2023/01/12 13:43:37;;;;;;;27.13;4.28;;;11.10;99.90;;;;;;5118725;27;20039;-39
2023/01/12 13:46:15;;;;;;;16.67;3.55;;;11.10;99.90;;;;;;5120069;27;20401;-40